createdAt,value
2017-12-19T00:01:47.982Z,36.93
2017-12-19T00:04:17.222Z,35.17
2017-12-19T00:06:47.640Z,38.00
2017-12-19T00:09:16.909Z,34.57
2017-12-19T00:11:46.502Z,37.17
2017-12-19T00:14:16.029Z,39.50
2017-12-19T00:16:45.375Z,36.60
2017-12-19T00:19:14.685Z,37.57
2017-12-19T00:21:44.124Z,30.83
2017-12-19T00:24:14.189Z,37.63
2017-12-19T00:26:43.879Z,33.80
2017-12-19T00:29:13.203Z,36.33
2017-12-19T00:31:42.508Z,36.30
2017-12-19T00:34:12.035Z,35.67
2017-12-19T00:36:41.304Z,36.43
2017-12-19T00:39:12.174Z,35.97
2017-12-19T00:41:41.823Z,37.40
2017-12-19T00:44:11.034Z,30.23
2017-12-19T00:46:40.395Z,38.90
2017-12-19T00:49:09.921Z,34.83
2017-12-19T00:51:39.156Z,36.90
2017-12-19T00:54:08.475Z,39.93
2017-12-19T00:56:38.029Z,34.00
2017-12-19T00:59:09.747Z,36.03
2017-12-19T01:01:38.975Z,38.87
2017-12-19T01:04:08.572Z,38.03
2017-12-19T01:06:37.885Z,37.10
2017-12-19T01:09:07.130Z,31.47
2017-12-19T01:11:36.944Z,36.90
2017-12-19T01:14:06.489Z,34.27
2017-12-19T01:16:36.244Z,32.07
2017-12-19T01:19:05.971Z,37.40
2017-12-19T01:21:35.224Z,32.17
2017-12-19T01:24:06.426Z,36.87
2017-12-19T01:26:36.074Z,33.97
2017-12-19T01:29:05.290Z,34.10
2017-12-19T01:31:34.661Z,28.60
2017-12-19T01:34:06.332Z,35.50
2017-12-19T01:36:35.570Z,35.70
2017-12-19T01:39:05.234Z,38.47
2017-12-19T01:41:34.797Z,33.30
2017-12-19T01:44:05.295Z,31.23
2017-12-19T01:46:34.499Z,32.20
2017-12-19T01:49:06.255Z,32.47
2017-12-19T01:51:35.538Z,30.80
2017-12-19T01:54:05.672Z,32.00
2017-12-19T01:56:35.247Z,30.93
2017-12-19T01:59:04.739Z,36.30
2017-12-19T02:01:34.012Z,28.57
2017-12-19T02:04:05.615Z,36.30
2017-12-19T02:06:35.759Z,32.60
2017-12-19T02:09:06.023Z,42.73
2017-12-19T02:11:35.590Z,36.67
2017-12-19T02:14:06.754Z,34.67
2017-12-19T02:16:36.090Z,35.67
2017-12-19T02:19:05.830Z,215.60
2017-12-19T02:21:35.185Z,86.93
2017-12-19T02:24:06.613Z,37.57
2017-12-19T02:26:36.244Z,34.97
2017-12-19T02:29:05.612Z,32.00
2017-12-19T02:31:35.025Z,32.27
2017-12-19T02:34:05.493Z,36.10
2017-12-19T02:36:34.870Z,38.30
2017-12-19T02:39:04.740Z,31.00
2017-12-19T02:41:34.346Z,33.00
2017-12-19T02:44:05.265Z,37.27
2017-12-19T02:46:34.758Z,35.03
2017-12-19T02:49:04.865Z,28.40
2017-12-19T02:51:34.189Z,32.90
2017-12-19T02:54:04.108Z,31.17
2017-12-19T02:56:33.763Z,27.50
2017-12-19T02:59:03.319Z,32.50
2017-12-19T03:01:32.795Z,32.90
2017-12-19T03:04:04.069Z,27.87
2017-12-19T03:06:33.375Z,32.70
2017-12-19T03:09:03.158Z,32.13
2017-12-19T03:11:32.858Z,30.23
2017-12-19T03:14:12.302Z,27.90
2017-12-19T03:16:44.205Z,32.80
2017-12-19T03:19:18.571Z,34.70
2017-12-19T03:21:55.543Z,29.70
2017-12-19T03:24:29.954Z,34.77
2017-12-19T03:26:59.713Z,44.10
2017-12-19T03:29:32.091Z,27.57
2017-12-19T03:32:04.585Z,31.07
2017-12-19T03:34:34.397Z,41.53
2017-12-19T03:37:04.296Z,35.20
2017-12-19T03:39:34.467Z,33.17
2017-12-19T03:42:05.750Z,32.10
2017-12-19T03:44:35.152Z,33.30
2017-12-19T03:47:05.040Z,32.70
2017-12-19T03:49:34.395Z,33.00
2017-12-19T03:52:04.751Z,35.10
2017-12-19T03:54:34.354Z,33.73
2017-12-19T03:57:03.894Z,33.50
2017-12-19T03:59:33.544Z,34.73
2017-12-19T04:02:04.264Z,28.33
2017-12-19T04:04:33.567Z,33.97
2017-12-19T04:07:04.178Z,36.83
2017-12-19T04:09:33.777Z,32.90
2017-12-19T04:12:04.119Z,34.13
2017-12-19T04:14:33.500Z,32.93
2017-12-19T04:17:03.296Z,34.87
2017-12-19T04:19:32.554Z,36.30
2017-12-19T04:22:03.071Z,38.73
2017-12-19T04:24:32.714Z,31.30
2017-12-19T04:27:02.359Z,37.03
2017-12-19T04:29:31.671Z,35.60
2017-12-19T04:32:15.699Z,39.20
2017-12-19T04:34:45.828Z,42.00
2017-12-19T04:37:15.412Z,42.73
2017-12-19T04:39:44.787Z,36.90
2017-12-19T04:42:14.054Z,40.07
2017-12-19T04:44:43.664Z,40.60
2017-12-19T04:47:12.948Z,40.90
2017-12-19T04:49:42.237Z,38.10
2017-12-19T04:52:11.795Z,38.57
2017-12-19T04:54:41.034Z,42.67
2017-12-19T04:57:10.328Z,41.43
2017-12-19T04:59:39.848Z,40.87
2017-12-19T05:02:09.131Z,44.27
2017-12-19T05:04:38.374Z,43.37
2017-12-19T05:07:07.894Z,54.13
2017-12-19T05:09:37.207Z,34.97
2017-12-19T05:12:07.316Z,39.97
2017-12-19T05:14:36.617Z,40.93
2017-12-19T05:17:05.941Z,36.90
2017-12-19T05:19:35.476Z,35.73
2017-12-19T05:22:05.624Z,35.27
2017-12-19T05:24:34.916Z,34.50
2017-12-19T05:27:04.707Z,43.80
2017-12-19T05:29:33.981Z,38.60
2017-12-19T05:32:05.004Z,44.40
2017-12-19T05:34:34.225Z,36.03
2017-12-19T05:37:03.762Z,45.20
2017-12-19T05:39:33.382Z,42.07
2017-12-19T05:42:03.551Z,38.97
2017-12-19T05:44:32.886Z,41.27
2017-12-19T05:47:03.240Z,46.07
2017-12-19T05:49:32.736Z,42.10
2017-12-19T05:52:04.101Z,42.17
2017-12-19T05:54:33.408Z,42.20
2017-12-19T05:57:03.402Z,46.93
2017-12-19T05:59:32.942Z,49.13
2017-12-19T06:02:03.236Z,42.40
2017-12-19T06:04:32.547Z,47.70
2017-12-19T06:07:02.257Z,46.17
2017-12-19T06:09:31.858Z,45.70
2017-12-19T06:12:02.100Z,44.50
2017-12-19T06:14:31.719Z,43.43
2017-12-19T06:17:01.240Z,46.53
2017-12-19T06:19:30.968Z,40.80
2017-12-19T06:22:00.278Z,38.03
2017-12-19T06:24:29.545Z,33.50
2017-12-19T06:26:59.171Z,35.03
2017-12-19T06:29:28.461Z,39.10
2017-12-19T06:31:57.838Z,38.50
2017-12-19T06:34:27.131Z,38.83
2017-12-19T06:36:56.448Z,32.70
2017-12-19T06:39:26.041Z,38.10
2017-12-19T06:41:55.312Z,39.43
2017-12-19T06:44:24.626Z,40.87
2017-12-19T06:46:55.214Z,37.17
2017-12-19T06:49:24.475Z,42.63
2017-12-19T06:51:53.803Z,39.07
2017-12-19T06:54:23.182Z,43.77
2017-12-19T06:56:52.971Z,40.90
2017-12-19T06:59:22.642Z,46.13
2017-12-19T07:01:51.983Z,48.47
2017-12-19T07:04:21.304Z,55.20
2017-12-19T07:06:51.920Z,44.63
2017-12-19T07:09:21.349Z,47.30
2017-12-19T07:11:50.623Z,40.57
2017-12-19T07:14:20.010Z,43.63
2017-12-19T07:16:50.168Z,48.90
2017-12-19T07:19:19.677Z,45.67
2017-12-19T07:21:49.096Z,55.50
2017-12-19T07:24:18.771Z,44.00
2017-12-19T07:26:48.475Z,45.07
2017-12-19T07:29:17.853Z,49.37
2017-12-19T07:31:47.238Z,48.23
2017-12-19T07:34:16.579Z,49.67
2017-12-19T07:36:45.989Z,40.87
2017-12-19T07:39:15.566Z,45.97
2017-12-19T07:41:45.032Z,41.80
2017-12-19T07:44:14.397Z,47.03
2017-12-19T07:46:44.010Z,44.37
2017-12-19T07:49:13.371Z,46.63
2017-12-19T07:51:42.621Z,41.67
2017-12-19T07:54:12.503Z,36.80
2017-12-19T07:56:41.763Z,50.27
2017-12-19T07:59:11.091Z,47.53
2017-12-19T08:01:40.650Z,37.67
2017-12-19T08:04:09.941Z,44.40
2017-12-19T08:06:39.162Z,46.70
2017-12-19T08:09:08.849Z,51.30
2017-12-19T08:11:38.156Z,41.57
2017-12-19T08:14:07.937Z,41.80
2017-12-19T08:16:37.788Z,39.07
2017-12-19T08:19:07.128Z,40.67
2017-12-19T08:21:36.431Z,42.07
2017-12-19T08:24:07.507Z,39.83
2017-12-19T08:26:36.883Z,48.60
2017-12-19T08:29:06.397Z,39.60
2017-12-19T08:31:35.953Z,40.23
2017-12-19T08:34:06.477Z,37.50
2017-12-19T08:36:35.778Z,35.97
2017-12-19T08:39:05.626Z,36.20
2017-12-19T08:41:34.864Z,42.27
2017-12-19T08:44:05.227Z,34.10
2017-12-19T08:46:34.807Z,40.03
2017-12-19T08:49:06.097Z,41.33
2017-12-19T08:51:35.550Z,40.70
2017-12-19T08:54:07.130Z,40.47
2017-12-19T08:56:36.909Z,44.53
2017-12-19T08:59:06.764Z,46.23
2017-12-19T09:01:36.364Z,46.67
2017-12-19T09:04:07.034Z,38.07
2017-12-19T09:06:36.295Z,45.73
2017-12-19T09:09:06.621Z,40.27
2017-12-19T09:11:35.882Z,41.97
2017-12-19T09:14:06.907Z,34.50
2017-12-19T09:16:36.461Z,44.80
2017-12-19T09:19:06.044Z,40.47
2017-12-19T09:21:35.327Z,41.30
2017-12-19T09:24:05.822Z,41.70
2017-12-19T09:26:36.706Z,47.07
2017-12-19T09:29:06.015Z,39.10
2017-12-19T09:31:35.563Z,40.27
2017-12-19T09:34:06.200Z,45.23
2017-12-19T09:36:35.429Z,44.23
2017-12-19T09:39:05.810Z,41.10
2017-12-19T09:41:35.067Z,44.57
2017-12-19T09:44:06.262Z,44.20
2017-12-19T09:46:35.781Z,44.63
2017-12-19T09:49:06.588Z,48.30
2017-12-19T09:51:35.834Z,43.60
2017-12-19T09:54:05.974Z,46.37
2017-12-19T09:56:35.215Z,48.33
2017-12-19T09:59:05.148Z,48.13
2017-12-19T10:01:34.723Z,56.07
2017-12-19T10:04:05.315Z,43.20
2017-12-19T10:06:35.514Z,50.63
2017-12-19T10:09:06.027Z,59.33
2017-12-19T10:11:35.534Z,51.30
2017-12-19T10:14:07.350Z,52.93
2017-12-19T10:16:36.911Z,51.90
2017-12-19T10:19:06.851Z,62.33
2017-12-19T10:21:36.313Z,50.53
2017-12-19T10:24:06.908Z,48.83
2017-12-19T10:26:36.277Z,53.90
2017-12-19T10:29:05.735Z,47.90
2017-12-19T10:31:35.376Z,49.97
2017-12-19T10:34:05.968Z,56.40
2017-12-19T10:36:35.453Z,51.77
2017-12-19T10:39:06.035Z,40.27
2017-12-19T10:41:35.443Z,41.13
2017-12-19T10:44:06.890Z,38.80
2017-12-19T10:46:36.458Z,45.33
2017-12-19T10:49:05.803Z,41.80
2017-12-19T10:51:35.440Z,43.13
2017-12-19T10:54:06.640Z,40.17
2017-12-19T10:56:36.020Z,57.87
2017-12-19T10:59:05.737Z,38.17
2017-12-19T11:01:35.012Z,33.50
2017-12-19T11:04:05.168Z,33.93
2017-12-19T11:06:34.400Z,39.10
2017-12-19T11:09:04.279Z,39.37
2017-12-19T11:11:33.847Z,34.40
2017-12-19T11:14:04.137Z,33.40
2017-12-19T11:16:33.434Z,30.33
2017-12-19T11:19:03.635Z,35.17
2017-12-19T11:21:32.919Z,30.23
2017-12-19T11:24:04.111Z,29.33
2017-12-19T11:26:33.543Z,30.90
2017-12-19T11:29:03.273Z,36.73
2017-12-19T11:31:34.256Z,32.77
2017-12-19T11:34:05.092Z,31.07
2017-12-19T11:36:34.433Z,31.20
2017-12-19T11:39:04.836Z,29.57
2017-12-19T11:41:34.124Z,29.80
2017-12-19T11:44:06.052Z,30.67
2017-12-19T11:46:35.314Z,29.53
2017-12-19T11:49:06.029Z,29.37
2017-12-19T11:51:35.573Z,23.93
2017-12-19T11:54:05.667Z,26.50
2017-12-19T11:56:34.874Z,25.00
2017-12-19T11:59:04.873Z,26.50
2017-12-19T12:01:34.215Z,30.53
2017-12-19T12:04:04.463Z,20.57
2017-12-19T12:06:33.719Z,23.53
2017-12-19T12:09:03.366Z,23.37
2017-12-19T12:11:33.152Z,26.13
2017-12-19T12:14:03.997Z,21.97
2017-12-19T12:16:33.339Z,21.40
2017-12-19T12:19:03.823Z,24.30
2017-12-19T12:21:33.066Z,19.60
2017-12-19T12:24:04.040Z,21.70
2017-12-19T12:26:33.298Z,21.37
2017-12-19T12:29:03.497Z,22.63
2017-12-19T12:31:33.447Z,19.87
2017-12-19T12:36:39.669Z,18.30
2017-12-19T12:39:10.554Z,15.40
2017-12-19T12:41:39.785Z,16.33
2017-12-19T12:44:09.056Z,15.03
2017-12-19T12:46:38.669Z,16.70
2017-12-19T12:49:07.940Z,17.63
2017-12-19T12:51:37.199Z,23.23
2017-12-19T12:54:07.055Z,17.23
2017-12-19T12:56:36.500Z,13.93
2017-12-19T12:59:05.755Z,13.63
2017-12-19T13:01:35.600Z,17.03
2017-12-19T13:04:06.232Z,15.40
2017-12-19T13:06:35.530Z,19.37
2017-12-19T13:09:06.261Z,15.40
2017-12-19T13:11:35.651Z,15.57
2017-12-19T13:14:06.106Z,16.93
2017-12-19T13:16:35.719Z,17.50
2017-12-19T13:19:05.360Z,16.33
2017-12-19T13:21:34.664Z,17.67
2017-12-19T13:24:05.494Z,12.00
2017-12-19T13:26:34.726Z,12.53
2017-12-19T13:29:04.459Z,18.40
2017-12-19T13:31:33.967Z,18.20
2017-12-19T13:34:04.320Z,17.93
2017-12-19T13:36:33.574Z,19.20
2017-12-19T13:39:05.071Z,21.43
2017-12-19T13:41:34.540Z,18.50
2017-12-19T13:44:06.033Z,17.50
2017-12-19T13:46:35.622Z,18.30
2017-12-19T13:49:05.690Z,14.60
2017-12-19T13:51:34.902Z,16.57
2017-12-19T13:54:05.376Z,20.80
2017-12-19T13:56:34.602Z,17.87
2017-12-19T13:59:04.489Z,17.13
2017-12-19T14:01:34.050Z,15.10
2017-12-19T14:06:41.521Z,16.70
2017-12-19T14:09:10.994Z,18.73
2017-12-19T14:11:40.307Z,17.50
2017-12-19T14:14:09.892Z,16.10
2017-12-19T14:16:40.166Z,15.33
2017-12-19T14:19:10.026Z,13.67
2017-12-19T14:21:39.549Z,21.50
2017-12-19T14:24:08.893Z,15.63
2017-12-19T14:26:38.161Z,18.13
2017-12-19T14:29:07.720Z,17.70
2017-12-19T14:31:36.975Z,14.73
2017-12-19T14:34:06.907Z,15.47
2017-12-19T14:36:36.459Z,17.03
2017-12-19T14:39:06.338Z,17.60
2017-12-19T14:41:35.596Z,18.53
2017-12-19T14:44:06.572Z,17.27
2017-12-19T14:46:35.819Z,16.87
2017-12-19T14:49:05.578Z,47.10
2017-12-19T14:51:35.163Z,26.43
2017-12-19T14:54:06.023Z,18.13
2017-12-19T14:56:37.614Z,18.17
2017-12-19T14:59:08.385Z,18.50
2017-12-19T15:01:37.623Z,17.17
2017-12-19T15:04:06.876Z,20.60
2017-12-19T15:06:36.376Z,24.87
2017-12-19T15:09:06.403Z,18.93
2017-12-19T15:11:35.658Z,19.00
2017-12-19T15:14:06.908Z,17.77
2017-12-19T15:16:36.421Z,16.43
2017-12-19T15:19:05.759Z,15.37
2017-12-19T15:21:35.341Z,17.63
2017-12-19T15:24:05.862Z,16.67
2017-12-19T15:26:35.138Z,22.27
2017-12-19T15:29:04.775Z,17.77
2017-12-19T15:31:33.997Z,19.07
2017-12-19T15:34:05.655Z,17.33
2017-12-19T15:36:34.999Z,13.70
2017-12-19T15:39:05.035Z,41.67
2017-12-19T15:41:34.558Z,17.37
2017-12-19T15:44:06.029Z,17.30
2017-12-19T15:46:35.457Z,18.37
2017-12-19T15:49:05.734Z,19.30
2017-12-19T15:51:35.378Z,17.10
2017-12-19T15:54:05.406Z,15.90
2017-12-19T15:56:35.008Z,18.83
2017-12-19T15:59:05.479Z,14.77
2017-12-19T16:01:34.788Z,17.70
2017-12-19T16:04:07.233Z,17.73
2017-12-19T16:06:36.664Z,14.13
2017-12-19T16:09:06.952Z,19.83
2017-12-19T16:11:36.319Z,20.47
2017-12-19T16:14:06.308Z,19.27
2017-12-19T16:16:35.899Z,22.83
2017-12-19T16:19:08.984Z,18.50
2017-12-19T16:21:38.273Z,19.97
2017-12-19T16:24:08.338Z,20.10
2017-12-19T16:26:37.762Z,18.87
2017-12-19T16:29:07.016Z,21.27
2017-12-19T16:31:36.817Z,22.53
2017-12-19T16:34:06.050Z,25.70
2017-12-19T16:36:35.281Z,25.50
2017-12-19T16:39:06.042Z,18.60
2017-12-19T16:41:35.263Z,19.93
2017-12-19T16:44:06.474Z,18.43
2017-12-19T16:46:35.700Z,25.37
2017-12-19T16:49:05.877Z,27.53
2017-12-19T16:51:35.480Z,33.33
2017-12-19T16:54:06.251Z,29.77
2017-12-19T16:56:35.509Z,29.03
2017-12-19T16:59:05.747Z,33.53
2017-12-19T17:01:34.998Z,32.30
2017-12-19T17:04:07.312Z,33.50
2017-12-19T17:06:36.871Z,37.90
2017-12-19T17:09:07.571Z,33.23
2017-12-19T17:11:36.927Z,43.77
2017-12-19T17:14:07.039Z,37.60
2017-12-19T17:16:36.251Z,52.67
2017-12-19T17:19:05.579Z,34.53
2017-12-19T17:21:34.888Z,38.73
2017-12-19T17:24:06.128Z,38.77
2017-12-19T17:26:35.619Z,34.17
2017-12-19T17:29:05.519Z,46.10
2017-12-19T17:31:35.100Z,31.47
2017-12-19T17:34:05.503Z,35.10
2017-12-19T17:36:34.760Z,35.07
2017-12-19T17:39:04.308Z,34.40
2017-12-19T17:41:33.918Z,29.60
2017-12-19T17:44:04.542Z,28.23
2017-12-19T17:46:33.753Z,31.90
2017-12-19T17:49:04.255Z,27.73
2017-12-19T17:51:35.347Z,26.50
2017-12-19T17:54:05.886Z,27.57
2017-12-19T17:56:35.462Z,30.07
2017-12-19T17:59:05.218Z,30.03
2017-12-19T18:01:34.502Z,31.43
2017-12-19T18:04:04.688Z,34.47
2017-12-19T18:06:34.309Z,40.47
2017-12-19T18:09:05.442Z,39.37
2017-12-19T18:11:34.656Z,38.93
2017-12-19T18:14:07.294Z,52.63
2017-12-19T18:16:36.832Z,38.20
2017-12-19T18:19:06.134Z,43.13
2017-12-19T18:21:35.444Z,41.90
2017-12-19T18:24:06.363Z,38.77
2017-12-19T18:26:35.622Z,45.97
2017-12-19T18:29:05.811Z,45.30
2017-12-19T18:31:35.109Z,39.70
2017-12-19T18:34:05.916Z,41.73
2017-12-19T18:36:35.426Z,35.07
2017-12-19T18:39:06.311Z,35.77
2017-12-19T18:41:35.692Z,40.30
2017-12-19T18:44:07.500Z,37.03
2017-12-19T18:46:37.313Z,45.37
2017-12-19T18:49:10.713Z,46.73
2017-12-19T18:51:40.483Z,43.17
2017-12-19T18:54:30.059Z,44.17
2017-12-19T18:57:00.941Z,39.30
2017-12-19T18:59:33.092Z,42.50
2017-12-19T19:02:05.345Z,41.70
2017-12-19T19:04:38.080Z,41.10
2017-12-19T19:07:11.108Z,42.40
2017-12-19T19:09:43.387Z,47.80
2017-12-19T19:12:14.331Z,45.60
2017-12-19T19:14:44.027Z,47.07
2017-12-19T19:17:14.594Z,62.53
2017-12-19T19:22:35.628Z,43.97
2017-12-19T19:25:06.429Z,45.80
2017-12-19T19:27:36.185Z,44.97
2017-12-19T19:30:06.919Z,44.77
2017-12-19T19:32:36.314Z,48.20
2017-12-19T19:35:07.145Z,49.50
2017-12-19T19:37:39.481Z,47.73
2017-12-19T19:40:09.080Z,45.70
2017-12-19T19:42:40.199Z,47.13
2017-12-19T19:45:11.457Z,43.27
2017-12-19T19:47:40.691Z,49.07
2017-12-19T19:50:09.952Z,37.83
2017-12-19T19:52:39.602Z,41.40
2017-12-19T19:55:10.357Z,38.70
2017-12-19T19:57:39.606Z,39.47
2017-12-19T20:00:09.112Z,43.53
2017-12-19T20:02:38.454Z,39.00
2017-12-19T20:05:07.716Z,36.40
2017-12-19T20:07:37.249Z,53.40
2017-12-19T20:10:06.592Z,45.83
2017-12-19T20:12:35.811Z,39.50
2017-12-19T20:15:05.447Z,40.57
2017-12-19T20:17:35.108Z,35.00
2017-12-19T20:20:06.733Z,41.93
2017-12-19T20:22:36.286Z,35.00
2017-12-19T20:25:06.050Z,37.30
2017-12-19T20:27:35.310Z,32.63
2017-12-19T20:30:05.845Z,30.73
2017-12-19T20:32:35.106Z,29.30
2017-12-19T20:35:05.118Z,30.80
2017-12-19T20:37:34.664Z,32.90
2017-12-19T20:40:04.910Z,31.17
2017-12-19T20:42:34.118Z,28.53
2017-12-19T20:45:03.965Z,33.47
2017-12-19T20:47:33.203Z,26.37
2017-12-19T20:50:04.683Z,33.57
2017-12-19T20:52:34.094Z,27.77
2017-12-19T20:55:04.566Z,26.80
2017-12-19T20:57:34.104Z,30.80
2017-12-19T21:00:04.459Z,29.70
2017-12-19T21:02:33.656Z,35.13
2017-12-19T21:05:04.482Z,33.77
2017-12-19T21:07:33.745Z,34.97
2017-12-19T21:10:03.821Z,36.87
2017-12-19T21:12:33.319Z,32.43
2017-12-19T21:15:03.388Z,31.63
2017-12-19T21:17:32.739Z,32.80
2017-12-19T21:20:03.704Z,30.70
2017-12-19T21:22:32.961Z,32.47
2017-12-19T21:25:02.381Z,33.13
2017-12-19T21:27:32.234Z,29.60
2017-12-19T21:30:02.268Z,34.80
2017-12-19T21:32:31.590Z,35.50
2017-12-19T21:35:01.485Z,31.70
2017-12-19T21:37:30.739Z,33.10
2017-12-19T21:40:02.331Z,28.93
2017-12-19T21:42:31.905Z,34.93
2017-12-19T21:45:01.790Z,44.43
2017-12-19T21:47:31.312Z,42.63
2017-12-19T21:50:00.696Z,32.70
2017-12-19T21:52:29.936Z,39.33
2017-12-19T21:55:00.171Z,45.90
2017-12-19T21:57:29.514Z,42.60
2017-12-19T21:59:59.941Z,44.73
2017-12-19T22:02:29.739Z,53.17
2017-12-19T22:04:58.978Z,56.77
2017-12-19T22:07:28.218Z,67.60
2017-12-19T22:09:57.739Z,54.43
2017-12-19T22:12:26.963Z,55.80
2017-12-19T22:14:56.190Z,50.33
2017-12-19T22:17:25.585Z,42.23
2017-12-19T22:19:54.863Z,41.83
2017-12-19T22:22:24.500Z,46.93
2017-12-19T22:24:53.841Z,51.67
2017-12-19T22:27:23.129Z,44.97
2017-12-19T22:29:53.212Z,35.10
2017-12-19T22:32:22.426Z,47.87
2017-12-19T22:35:02.985Z,61.80
2017-12-19T22:37:32.781Z,63.00
2017-12-19T22:40:03.441Z,82.57
2017-12-19T22:42:32.783Z,99.03
2017-12-19T22:45:03.817Z,84.43
2017-12-19T22:47:33.113Z,55.80
2017-12-19T22:50:04.543Z,48.37
2017-12-19T22:52:33.795Z,51.23
2017-12-19T22:55:03.317Z,45.93
2017-12-19T22:57:32.877Z,45.90
2017-12-19T23:00:02.896Z,48.07
2017-12-19T23:02:32.139Z,41.13
2017-12-19T23:05:03.223Z,30.07
2017-12-19T23:07:32.457Z,31.37
2017-12-19T23:10:04.703Z,31.47
2017-12-19T23:12:34.242Z,37.33
2017-12-19T23:15:03.743Z,32.70
2017-12-19T23:17:33.039Z,32.33
2017-12-19T23:20:04.392Z,27.40
2017-12-19T23:22:33.884Z,26.50
2017-12-19T23:25:03.615Z,25.07
2017-12-19T23:27:32.880Z,28.60
2017-12-19T23:30:03.521Z,30.27
2017-12-19T23:32:33.015Z,34.97
2017-12-19T23:35:02.557Z,28.17
2017-12-19T23:37:31.791Z,25.73
2017-12-19T23:40:03.778Z,28.13
2017-12-19T23:42:33.419Z,31.93
2017-12-19T23:45:03.757Z,35.23
2017-12-19T23:47:33.244Z,33.00
2017-12-19T23:50:03.286Z,40.40
2017-12-19T23:52:32.531Z,37.37
2017-12-19T23:55:03.089Z,42.13
2017-12-19T23:57:32.292Z,50.27
